sensor_id;sensor_type;location;lat;lon;timestamp;P1;durP1;ratioP1;P2;durP2;ratioP2
11396;SDS011;5754;43.726;7.416;2023-04-24T00:01:01;7.77;;;4.70;;
11396;SDS011;5754;43.726;7.416;2023-04-24T00:03:36;5.43;;;3.77;;
11396;SDS011;5754;43.726;7.416;2023-04-24T00:06:12;5.00;;;3.53;;
11396;SDS011;5754;43.726;7.416;2023-04-24T00:08:47;3.53;;;3.23;;
11396;SDS011;5754;43.726;7.416;2023-04-24T00:11:22;6.67;;;3.43;;
11396;SDS011;5754;43.726;7.416;2023-04-24T00:13:57;3.13;;;2.80;;
11396;SDS011;5754;43.726;7.416;2023-04-24T00:16:31;4.03;;;2.60;;
11396;SDS011;5754;43.726;7.416;2023-04-24T00:19:06;3.10;;;2.40;;
11396;SDS011;5754;43.726;7.416;2023-04-24T00:21:40;3.43;;;2.47;;
11396;SDS011;5754;43.726;7.416;2023-04-24T00:24:16;4.03;;;3.00;;
11396;SDS011;5754;43.726;7.416;2023-04-24T00:26:51;4.80;;;3.60;;
11396;SDS011;5754;43.726;7.416;2023-04-24T00:29:26;6.23;;;3.63;;
11396;SDS011;5754;43.726;7.416;2023-04-24T00:32:02;3.40;;;3.10;;
11396;SDS011;5754;43.726;7.416;2023-04-24T00:34:39;3.73;;;3.30;;
11396;SDS011;5754;43.726;7.416;2023-04-24T00:37:15;5.00;;;3.60;;
11396;SDS011;5754;43.726;7.416;2023-04-24T00:39:51;3.60;;;3.30;;
11396;SDS011;5754;43.726;7.416;2023-04-24T00:42:26;6.20;;;2.93;;
11396;SDS011;5754;43.726;7.416;2023-04-24T00:45:00;3.37;;;2.93;;
11396;SDS011;5754;43.726;7.416;2023-04-24T00:47:35;5.07;;;2.97;;
11396;SDS011;5754;43.726;7.416;2023-04-24T00:50:11;3.73;;;2.33;;
11396;SDS011;5754;43.726;7.416;2023-04-24T00:52:47;5.77;;;2.30;;
11396;SDS011;5754;43.726;7.416;2023-04-24T00:55:22;2.03;;;1.63;;
11396;SDS011;5754;43.726;7.416;2023-04-24T00:57:56;2.23;;;1.43;;
11396;SDS011;5754;43.726;7.416;2023-04-24T01:00:31;2.20;;;1.20;;
11396;SDS011;5754;43.726;7.416;2023-04-24T01:03:05;0.97;;;0.77;;
11396;SDS011;5754;43.726;7.416;2023-04-24T01:05:41;2.23;;;0.80;;
11396;SDS011;5754;43.726;7.416;2023-04-24T01:08:17;0.90;;;0.80;;
11396;SDS011;5754;43.726;7.416;2023-04-24T01:10:53;0.90;;;0.90;;
11396;SDS011;5754;43.726;7.416;2023-04-24T01:13:28;1.67;;;0.80;;
11396;SDS011;5754;43.726;7.416;2023-04-24T01:16:03;1.30;;;0.90;;
11396;SDS011;5754;43.726;7.416;2023-04-24T01:18:37;0.90;;;0.87;;
11396;SDS011;5754;43.726;7.416;2023-04-24T01:21:12;0.80;;;0.80;;
11396;SDS011;5754;43.726;7.416;2023-04-24T01:23:48;0.77;;;0.77;;
11396;SDS011;5754;43.726;7.416;2023-04-24T01:26:24;2.47;;;0.87;;
11396;SDS011;5754;43.726;7.416;2023-04-24T01:28:59;1.90;;;1.07;;
11396;SDS011;5754;43.726;7.416;2023-04-24T01:31:35;3.60;;;1.00;;
11396;SDS011;5754;43.726;7.416;2023-04-24T01:34:11;5.50;;;0.90;;
11396;SDS011;5754;43.726;7.416;2023-04-24T01:36:45;1.40;;;0.70;;
11396;SDS011;5754;43.726;7.416;2023-04-24T01:39:21;0.60;;;0.60;;
11396;SDS011;5754;43.726;7.416;2023-04-24T01:42:00;0.93;;;0.80;;
11396;SDS011;5754;43.726;7.416;2023-04-24T01:44:36;0.90;;;0.80;;
11396;SDS011;5754;43.726;7.416;2023-04-24T01:47:10;1.10;;;0.90;;
11396;SDS011;5754;43.726;7.416;2023-04-24T01:49:45;1.87;;;0.70;;
11396;SDS011;5754;43.726;7.416;2023-04-24T01:52:19;2.20;;;0.97;;
11396;SDS011;5754;43.726;7.416;2023-04-24T01:54:55;1.27;;;0.80;;
11396;SDS011;5754;43.726;7.416;2023-04-24T01:57:33;1.87;;;0.80;;
11396;SDS011;5754;43.726;7.416;2023-04-24T02:00:08;3.73;;;0.90;;
11396;SDS011;5754;43.726;7.416;2023-04-24T02:02:47;0.63;;;0.63;;
11396;SDS011;5754;43.726;7.416;2023-04-24T02:05:23;1.57;;;1.00;;
11396;SDS011;5754;43.726;7.416;2023-04-24T02:07:58;1.10;;;0.90;;
11396;SDS011;5754;43.726;7.416;2023-04-24T02:10:33;1.97;;;0.63;;
11396;SDS011;5754;43.726;7.416;2023-04-24T02:13:08;3.40;;;1.00;;
11396;SDS011;5754;43.726;7.416;2023-04-24T02:15:42;0.87;;;0.80;;
11396;SDS011;5754;43.726;7.416;2023-04-24T02:18:16;1.27;;;0.80;;
11396;SDS011;5754;43.726;7.416;2023-04-24T02:20:51;0.70;;;0.70;;
11396;SDS011;5754;43.726;7.416;2023-04-24T02:23:27;2.67;;;0.73;;
11396;SDS011;5754;43.726;7.416;2023-04-24T02:26:01;5.30;;;1.00;;
11396;SDS011;5754;43.726;7.416;2023-04-24T02:28:35;2.53;;;0.80;;
11396;SDS011;5754;43.726;7.416;2023-04-24T02:31:10;1.30;;;0.90;;
11396;SDS011;5754;43.726;7.416;2023-04-24T02:33:44;2.27;;;0.80;;
11396;SDS011;5754;43.726;7.416;2023-04-24T02:36:19;1.03;;;0.90;;
11396;SDS011;5754;43.726;7.416;2023-04-24T02:38:54;1.07;;;0.70;;
11396;SDS011;5754;43.726;7.416;2023-04-24T02:41:29;0.90;;;0.70;;
11396;SDS011;5754;43.726;7.416;2023-04-24T02:44:05;1.47;;;0.80;;
11396;SDS011;5754;43.726;7.416;2023-04-24T02:46:40;6.10;;;1.23;;
11396;SDS011;5754;43.726;7.416;2023-04-24T02:49:15;0.77;;;0.73;;
11396;SDS011;5754;43.726;7.416;2023-04-24T02:51:50;5.27;;;1.20;;
11396;SDS011;5754;43.726;7.416;2023-04-24T02:54:25;1.73;;;0.83;;
11396;SDS011;5754;43.726;7.416;2023-04-24T02:57:00;0.80;;;0.80;;
11396;SDS011;5754;43.726;7.416;2023-04-24T02:59:34;1.60;;;0.73;;
11396;SDS011;5754;43.726;7.416;2023-04-24T03:02:09;3.23;;;0.83;;
11396;SDS011;5754;43.726;7.416;2023-04-24T03:04:43;0.93;;;0.80;;
11396;SDS011;5754;43.726;7.416;2023-04-24T03:07:17;1.77;;;0.73;;
11396;SDS011;5754;43.726;7.416;2023-04-24T03:09:54;0.67;;;0.67;;
11396;SDS011;5754;43.726;7.416;2023-04-24T03:12:28;1.70;;;0.70;;
11396;SDS011;5754;43.726;7.416;2023-04-24T03:15:03;1.40;;;0.83;;
11396;SDS011;5754;43.726;7.416;2023-04-24T03:17:38;0.60;;;0.60;;
11396;SDS011;5754;43.726;7.416;2023-04-24T03:20:13;0.60;;;0.60;;
11396;SDS011;5754;43.726;7.416;2023-04-24T03:22:47;3.03;;;1.00;;
11396;SDS011;5754;43.726;7.416;2023-04-24T03:25:22;1.43;;;0.70;;
11396;SDS011;5754;43.726;7.416;2023-04-24T03:27:57;1.53;;;0.70;;
11396;SDS011;5754;43.726;7.416;2023-04-24T03:32:23;0.80;;;0.80;;
11396;SDS011;5754;43.726;7.416;2023-04-24T03:34:59;1.60;;;0.80;;
11396;SDS011;5754;43.726;7.416;2023-04-24T03:37:34;1.10;;;0.80;;
11396;SDS011;5754;43.726;7.416;2023-04-24T03:40:24;2.00;;;0.73;;
11396;SDS011;5754;43.726;7.416;2023-04-24T03:42:58;2.13;;;0.80;;
11396;SDS011;5754;43.726;7.416;2023-04-24T03:45:34;0.70;;;0.70;;
11396;SDS011;5754;43.726;7.416;2023-04-24T03:48:08;0.73;;;0.60;;
11396;SDS011;5754;43.726;7.416;2023-04-24T03:50:43;1.60;;;0.87;;
11396;SDS011;5754;43.726;7.416;2023-04-24T03:56:01;0.77;;;0.70;;
11396;SDS011;5754;43.726;7.416;2023-04-24T03:58:38;1.37;;;0.90;;
11396;SDS011;5754;43.726;7.416;2023-04-24T04:01:13;0.80;;;0.73;;
11396;SDS011;5754;43.726;7.416;2023-04-24T04:03:53;2.40;;;0.90;;
11396;SDS011;5754;43.726;7.416;2023-04-24T04:06:30;1.27;;;0.87;;
11396;SDS011;5754;43.726;7.416;2023-04-24T04:09:04;0.80;;;0.70;;
11396;SDS011;5754;43.726;7.416;2023-04-24T04:11:42;0.80;;;0.80;;
11396;SDS011;5754;43.726;7.416;2023-04-24T04:14:18;2.80;;;0.80;;
11396;SDS011;5754;43.726;7.416;2023-04-24T04:16:53;1.10;;;0.70;;
11396;SDS011;5754;43.726;7.416;2023-04-24T04:19:28;0.90;;;0.90;;
11396;SDS011;5754;43.726;7.416;2023-04-24T04:22:02;1.20;;;0.80;;
11396;SDS011;5754;43.726;7.416;2023-04-24T04:24:46;1.60;;;0.93;;
11396;SDS011;5754;43.726;7.416;2023-04-24T04:27:22;0.77;;;0.77;;
11396;SDS011;5754;43.726;7.416;2023-04-24T04:30:03;2.20;;;0.90;;
11396;SDS011;5754;43.726;7.416;2023-04-24T04:32:43;3.43;;;1.30;;
11396;SDS011;5754;43.726;7.416;2023-04-24T04:35:21;1.77;;;1.30;;
11396;SDS011;5754;43.726;7.416;2023-04-24T04:37:57;4.50;;;1.47;;
11396;SDS011;5754;43.726;7.416;2023-04-24T04:40:44;2.90;;;1.77;;
11396;SDS011;5754;43.726;7.416;2023-04-24T04:43:19;1.10;;;1.00;;
11396;SDS011;5754;43.726;7.416;2023-04-24T04:45:57;1.50;;;1.00;;
11396;SDS011;5754;43.726;7.416;2023-04-24T04:48:45;1.70;;;1.20;;
11396;SDS011;5754;43.726;7.416;2023-04-24T04:51:21;3.80;;;1.23;;
11396;SDS011;5754;43.726;7.416;2023-04-24T04:53:56;4.30;;;1.20;;
11396;SDS011;5754;43.726;7.416;2023-04-24T04:56:31;1.50;;;1.27;;
11396;SDS011;5754;43.726;7.416;2023-04-24T04:59:06;2.83;;;1.30;;
11396;SDS011;5754;43.726;7.416;2023-04-24T05:01:42;1.13;;;1.00;;
11396;SDS011;5754;43.726;7.416;2023-04-24T05:04:17;2.57;;;1.13;;
11396;SDS011;5754;43.726;7.416;2023-04-24T05:06:53;3.17;;;1.47;;
11396;SDS011;5754;43.726;7.416;2023-04-24T05:09:27;2.90;;;1.20;;
11396;SDS011;5754;43.726;7.416;2023-04-24T05:12:07;2.90;;;1.50;;
11396;SDS011;5754;43.726;7.416;2023-04-24T05:14:46;2.90;;;1.53;;
11396;SDS011;5754;43.726;7.416;2023-04-24T05:17:20;2.07;;;1.47;;
11396;SDS011;5754;43.726;7.416;2023-04-24T05:19:56;3.00;;;1.20;;
11396;SDS011;5754;43.726;7.416;2023-04-24T05:22:31;4.77;;;1.60;;
11396;SDS011;5754;43.726;7.416;2023-04-24T05:25:05;1.93;;;1.40;;
11396;SDS011;5754;43.726;7.416;2023-04-24T05:27:43;1.13;;;1.03;;
11396;SDS011;5754;43.726;7.416;2023-04-24T05:30:22;4.10;;;1.23;;
11396;SDS011;5754;43.726;7.416;2023-04-24T05:32:56;2.30;;;1.30;;
11396;SDS011;5754;43.726;7.416;2023-04-24T05:35:30;2.97;;;1.53;;
11396;SDS011;5754;43.726;7.416;2023-04-24T05:38:05;3.00;;;1.40;;
11396;SDS011;5754;43.726;7.416;2023-04-24T05:40:39;2.57;;;1.20;;
11396;SDS011;5754;43.726;7.416;2023-04-24T05:43:14;5.70;;;1.70;;
11396;SDS011;5754;43.726;7.416;2023-04-24T05:45:48;2.17;;;1.23;;
11396;SDS011;5754;43.726;7.416;2023-04-24T05:48:24;3.47;;;1.53;;
11396;SDS011;5754;43.726;7.416;2023-04-24T05:50:59;1.83;;;1.40;;
11396;SDS011;5754;43.726;7.416;2023-04-24T05:53:34;5.73;;;1.77;;
11396;SDS011;5754;43.726;7.416;2023-04-24T05:56:09;3.90;;;1.33;;
11396;SDS011;5754;43.726;7.416;2023-04-24T05:58:45;4.17;;;1.00;;
11396;SDS011;5754;43.726;7.416;2023-04-24T06:01:22;3.43;;;1.40;;
11396;SDS011;5754;43.726;7.416;2023-04-24T06:04:03;1.70;;;0.60;;
11396;SDS011;5754;43.726;7.416;2023-04-24T06:06:37;0.93;;;0.90;;
11396;SDS011;5754;43.726;7.416;2023-04-24T06:09:13;1.20;;;1.00;;
11396;SDS011;5754;43.726;7.416;2023-04-24T06:11:47;2.10;;;1.15;;
11396;SDS011;5754;43.726;7.416;2023-04-24T06:14:22;2.20;;;1.10;;
11396;SDS011;5754;43.726;7.416;2023-04-24T06:18:30;1.25;;;1.12;;
11396;SDS011;5754;43.726;7.416;2023-04-24T06:21:04;4.32;;;1.05;;
11396;SDS011;5754;43.726;7.416;2023-04-24T06:23:40;1.05;;;0.80;;
11396;SDS011;5754;43.726;7.416;2023-04-24T06:26:15;0.95;;;0.80;;
11396;SDS011;5754;43.726;7.416;2023-04-24T06:28:49;4.90;;;1.40;;
11396;SDS011;5754;43.726;7.416;2023-04-24T06:31:25;2.95;;;1.10;;
11396;SDS011;5754;43.726;7.416;2023-04-24T06:34:00;2.25;;;0.90;;
11396;SDS011;5754;43.726;7.416;2023-04-24T06:36:36;1.27;;;0.90;;
11396;SDS011;5754;43.726;7.416;2023-04-24T06:39:11;2.65;;;0.93;;
11396;SDS011;5754;43.726;7.416;2023-04-24T06:41:46;2.58;;;1.20;;
11396;SDS011;5754;43.726;7.416;2023-04-24T06:44:25;2.20;;;1.30;;
11396;SDS011;5754;43.726;7.416;2023-04-24T06:47:00;2.92;;;1.35;;
11396;SDS011;5754;43.726;7.416;2023-04-24T06:49:34;4.12;;;1.65;;
11396;SDS011;5754;43.726;7.416;2023-04-24T06:52:09;3.62;;;1.62;;
11396;SDS011;5754;43.726;7.416;2023-04-24T06:54:44;2.90;;;1.40;;
11396;SDS011;5754;43.726;7.416;2023-04-24T06:57:18;2.90;;;1.52;;
11396;SDS011;5754;43.726;7.416;2023-04-24T06:59:54;4.43;;;1.67;;
11396;SDS011;5754;43.726;7.416;2023-04-24T07:02:31;1.60;;;1.40;;
11396;SDS011;5754;43.726;7.416;2023-04-24T07:05:06;3.83;;;1.30;;
11396;SDS011;5754;43.726;7.416;2023-04-24T07:07:41;1.50;;;1.30;;
11396;SDS011;5754;43.726;7.416;2023-04-24T07:10:17;3.53;;;1.35;;
11396;SDS011;5754;43.726;7.416;2023-04-24T07:12:51;4.57;;;1.58;;
11396;SDS011;5754;43.726;7.416;2023-04-24T07:15:26;5.78;;;1.70;;
11396;SDS011;5754;43.726;7.416;2023-04-24T07:18:01;4.80;;;1.85;;
11396;SDS011;5754;43.726;7.416;2023-04-24T07:20:36;3.60;;;1.67;;
11396;SDS011;5754;43.726;7.416;2023-04-24T07:23:11;3.83;;;1.90;;
11396;SDS011;5754;43.726;7.416;2023-04-24T07:25:45;3.28;;;1.60;;
11396;SDS011;5754;43.726;7.416;2023-04-24T07:28:20;3.25;;;1.48;;
11396;SDS011;5754;43.726;7.416;2023-04-24T07:30:55;2.53;;;1.30;;
11396;SDS011;5754;43.726;7.416;2023-04-24T07:33:30;2.42;;;1.27;;
11396;SDS011;5754;43.726;7.416;2023-04-24T07:36:07;1.35;;;1.25;;
11396;SDS011;5754;43.726;7.416;2023-04-24T07:38:48;1.65;;;1.02;;
11396;SDS011;5754;43.726;7.416;2023-04-24T07:41:22;2.55;;;1.10;;
11396;SDS011;5754;43.726;7.416;2023-04-24T07:43:58;5.07;;;1.30;;
11396;SDS011;5754;43.726;7.416;2023-04-24T07:46:33;2.60;;;1.90;;
11396;SDS011;5754;43.726;7.416;2023-04-24T07:49:07;3.92;;;1.37;;
11396;SDS011;5754;43.726;7.416;2023-04-24T07:51:46;4.28;;;1.20;;
11396;SDS011;5754;43.726;7.416;2023-04-24T07:54:20;1.42;;;1.33;;
11396;SDS011;5754;43.726;7.416;2023-04-24T07:56:54;2.55;;;1.50;;
11396;SDS011;5754;43.726;7.416;2023-04-24T07:59:28;2.22;;;1.12;;
11396;SDS011;5754;43.726;7.416;2023-04-24T08:02:03;2.80;;;1.17;;
11396;SDS011;5754;43.726;7.416;2023-04-24T08:04:38;4.30;;;1.42;;
11396;SDS011;5754;43.726;7.416;2023-04-24T08:07:12;1.85;;;1.33;;
11396;SDS011;5754;43.726;7.416;2023-04-24T08:09:47;3.70;;;1.40;;
11396;SDS011;5754;43.726;7.416;2023-04-24T08:12:22;1.02;;;0.88;;
11396;SDS011;5754;43.726;7.416;2023-04-24T08:14:57;3.05;;;1.17;;
11396;SDS011;5754;43.726;7.416;2023-04-24T08:17:31;1.40;;;1.25;;
11396;SDS011;5754;43.726;7.416;2023-04-24T08:20:08;1.48;;;1.00;;
11396;SDS011;5754;43.726;7.416;2023-04-24T08:22:46;1.95;;;1.10;;
11396;SDS011;5754;43.726;7.416;2023-04-24T08:25:22;1.42;;;1.05;;
11396;SDS011;5754;43.726;7.416;2023-04-24T08:27:58;1.37;;;1.10;;
11396;SDS011;5754;43.726;7.416;2023-04-24T08:30:32;4.45;;;1.10;;
11396;SDS011;5754;43.726;7.416;2023-04-24T08:33:07;2.33;;;1.20;;
11396;SDS011;5754;43.726;7.416;2023-04-24T08:35:41;2.40;;;1.23;;
11396;SDS011;5754;43.726;7.416;2023-04-24T08:38:16;3.17;;;1.10;;
11396;SDS011;5754;43.726;7.416;2023-04-24T08:40:50;3.10;;;1.30;;
11396;SDS011;5754;43.726;7.416;2023-04-24T08:43:25;1.20;;;1.03;;
11396;SDS011;5754;43.726;7.416;2023-04-24T08:46:00;1.27;;;1.10;;
11396;SDS011;5754;43.726;7.416;2023-04-24T08:48:36;2.67;;;1.27;;
11396;SDS011;5754;43.726;7.416;2023-04-24T08:51:10;2.97;;;1.17;;
11396;SDS011;5754;43.726;7.416;2023-04-24T08:53:45;3.03;;;1.33;;
11396;SDS011;5754;43.726;7.416;2023-04-24T08:56:21;2.80;;;1.50;;
11396;SDS011;5754;43.726;7.416;2023-04-24T08:58:56;3.67;;;1.70;;
11396;SDS011;5754;43.726;7.416;2023-04-24T09:01:30;2.97;;;1.20;;
11396;SDS011;5754;43.726;7.416;2023-04-24T09:04:07;1.53;;;1.00;;
11396;SDS011;5754;43.726;7.416;2023-04-24T09:06:46;1.37;;;0.87;;
11396;SDS011;5754;43.726;7.416;2023-04-24T09:09:21;2.57;;;1.20;;
11396;SDS011;5754;43.726;7.416;2023-04-24T09:11:57;2.13;;;1.00;;
11396;SDS011;5754;43.726;7.416;2023-04-24T09:14:32;2.60;;;1.10;;
11396;SDS011;5754;43.726;7.416;2023-04-24T09:17:07;1.20;;;1.10;;
11396;SDS011;5754;43.726;7.416;2023-04-24T09:19:41;1.13;;;0.90;;
11396;SDS011;5754;43.726;7.416;2023-04-24T09:22:16;2.27;;;0.80;;
11396;SDS011;5754;43.726;7.416;2023-04-24T09:25:04;2.15;;;1.05;;
11396;SDS011;5754;43.726;7.416;2023-04-24T09:27:41;2.25;;;1.00;;
11396;SDS011;5754;43.726;7.416;2023-04-24T09:30:21;1.10;;;0.90;;
11396;SDS011;5754;43.726;7.416;2023-04-24T09:33:12;2.53;;;1.00;;
11396;SDS011;5754;43.726;7.416;2023-04-24T09:35:50;1.98;;;1.10;;
11396;SDS011;5754;43.726;7.416;2023-04-24T09:38:35;1.85;;;1.00;;
11396;SDS011;5754;43.726;7.416;2023-04-24T09:41:10;1.87;;;1.27;;
11396;SDS011;5754;43.726;7.416;2023-04-24T09:43:48;2.55;;;1.30;;
11396;SDS011;5754;43.726;7.416;2023-04-24T09:46:29;4.17;;;1.10;;
11396;SDS011;5754;43.726;7.416;2023-04-24T09:49:23;2.75;;;1.10;;
11396;SDS011;5754;43.726;7.416;2023-04-24T09:52:10;3.40;;;1.10;;
11396;SDS011;5754;43.726;7.416;2023-04-24T09:54:51;2.30;;;1.10;;
11396;SDS011;5754;43.726;7.416;2023-04-24T09:57:27;1.93;;;1.30;;
11396;SDS011;5754;43.726;7.416;2023-04-24T10:00:01;2.90;;;1.27;;
11396;SDS011;5754;43.726;7.416;2023-04-24T10:02:44;1.37;;;1.07;;
11396;SDS011;5754;43.726;7.416;2023-04-24T10:05:19;2.13;;;1.10;;
11396;SDS011;5754;43.726;7.416;2023-04-24T10:08:05;2.00;;;1.70;;
11396;SDS011;5754;43.726;7.416;2023-04-24T10:10:41;1.30;;;1.20;;
11396;SDS011;5754;43.726;7.416;2023-04-24T10:13:16;3.30;;;1.97;;
11396;SDS011;5754;43.726;7.416;2023-04-24T10:15:51;2.93;;;1.70;;
11396;SDS011;5754;43.726;7.416;2023-04-24T10:18:25;2.57;;;1.50;;
11396;SDS011;5754;43.726;7.416;2023-04-24T10:21:00;1.80;;;1.10;;
11396;SDS011;5754;43.726;7.416;2023-04-24T10:23:36;1.20;;;1.10;;
11396;SDS011;5754;43.726;7.416;2023-04-24T10:26:12;1.63;;;1.27;;
11396;SDS011;5754;43.726;7.416;2023-04-24T10:28:51;1.87;;;1.00;;
11396;SDS011;5754;43.726;7.416;2023-04-24T10:31:26;1.90;;;0.90;;
11396;SDS011;5754;43.726;7.416;2023-04-24T10:34:01;2.33;;;1.23;;
11396;SDS011;5754;43.726;7.416;2023-04-24T10:36:40;1.30;;;1.20;;
11396;SDS011;5754;43.726;7.416;2023-04-24T10:39:15;2.80;;;1.40;;
11396;SDS011;5754;43.726;7.416;2023-04-24T10:41:50;1.50;;;1.40;;
11396;SDS011;5754;43.726;7.416;2023-04-24T10:44:25;2.10;;;1.47;;
11396;SDS011;5754;43.726;7.416;2023-04-24T10:47:00;1.50;;;1.40;;
11396;SDS011;5754;43.726;7.416;2023-04-24T10:49:35;2.70;;;1.60;;
11396;SDS011;5754;43.726;7.416;2023-04-24T10:52:09;1.70;;;1.57;;
11396;SDS011;5754;43.726;7.416;2023-04-24T10:54:45;2.57;;;1.23;;
11396;SDS011;5754;43.726;7.416;2023-04-24T10:57:29;2.20;;;1.40;;
11396;SDS011;5754;43.726;7.416;2023-04-24T11:00:14;3.07;;;1.73;;
11396;SDS011;5754;43.726;7.416;2023-04-24T11:02:49;4.10;;;1.80;;
11396;SDS011;5754;43.726;7.416;2023-04-24T11:10:00;3.87;;;1.53;;
11396;SDS011;5754;43.726;7.416;2023-04-24T11:12:34;2.33;;;1.43;;
11396;SDS011;5754;43.726;7.416;2023-04-24T11:15:11;3.73;;;1.43;;
11396;SDS011;5754;43.726;7.416;2023-04-24T11:17:46;3.80;;;1.53;;
11396;SDS011;5754;43.726;7.416;2023-04-24T11:20:22;7.20;;;2.10;;
11396;SDS011;5754;43.726;7.416;2023-04-24T11:23:03;2.50;;;1.50;;
11396;SDS011;5754;43.726;7.416;2023-04-24T11:25:40;2.53;;;1.60;;
11396;SDS011;5754;43.726;7.416;2023-04-24T11:28:16;2.87;;;1.80;;
11396;SDS011;5754;43.726;7.416;2023-04-24T11:30:50;2.40;;;1.50;;
11396;SDS011;5754;43.726;7.416;2023-04-24T11:33:25;2.23;;;1.40;;
11396;SDS011;5754;43.726;7.416;2023-04-24T11:36:00;2.30;;;1.70;;
11396;SDS011;5754;43.726;7.416;2023-04-24T11:38:36;1.70;;;1.60;;
11396;SDS011;5754;43.726;7.416;2023-04-24T11:41:10;3.20;;;1.80;;
11396;SDS011;5754;43.726;7.416;2023-04-24T11:43:45;4.07;;;2.17;;
11396;SDS011;5754;43.726;7.416;2023-04-24T11:46:23;2.97;;;2.20;;
11396;SDS011;5754;43.726;7.416;2023-04-24T11:49:00;3.30;;;2.37;;
11396;SDS011;5754;43.726;7.416;2023-04-24T11:51:35;6.07;;;3.10;;
11396;SDS011;5754;43.726;7.416;2023-04-24T11:54:13;4.00;;;1.90;;
11396;SDS011;5754;43.726;7.416;2023-04-24T11:56:49;4.03;;;2.40;;
11396;SDS011;5754;43.726;7.416;2023-04-24T11:59:24;11.20;;;2.87;;
11396;SDS011;5754;43.726;7.416;2023-04-24T12:01:59;3.80;;;2.30;;
11396;SDS011;5754;43.726;7.416;2023-04-24T12:04:39;6.07;;;2.70;;
11396;SDS011;5754;43.726;7.416;2023-04-24T12:07:15;5.47;;;2.50;;
11396;SDS011;5754;43.726;7.416;2023-04-24T12:09:56;7.07;;;2.87;;
11396;SDS011;5754;43.726;7.416;2023-04-24T12:12:32;6.97;;;2.60;;
11396;SDS011;5754;43.726;7.416;2023-04-24T12:15:07;6.33;;;2.60;;
11396;SDS011;5754;43.726;7.416;2023-04-24T12:17:42;6.17;;;3.20;;
11396;SDS011;5754;43.726;7.416;2023-04-24T12:20:17;3.80;;;2.60;;
11396;SDS011;5754;43.726;7.416;2023-04-24T12:22:52;4.43;;;2.63;;
11396;SDS011;5754;43.726;7.416;2023-04-24T12:25:28;7.17;;;3.03;;
11396;SDS011;5754;43.726;7.416;2023-04-24T12:28:12;5.20;;;2.80;;
11396;SDS011;5754;43.726;7.416;2023-04-24T12:30:47;6.87;;;2.40;;
11396;SDS011;5754;43.726;7.416;2023-04-24T12:33:23;8.97;;;2.97;;
11396;SDS011;5754;43.726;7.416;2023-04-24T12:35:57;5.40;;;2.90;;
11396;SDS011;5754;43.726;7.416;2023-04-24T12:38:32;9.57;;;2.70;;
11396;SDS011;5754;43.726;7.416;2023-04-24T12:41:14;5.73;;;2.77;;
11396;SDS011;5754;43.726;7.416;2023-04-24T12:43:52;9.17;;;2.90;;
11396;SDS011;5754;43.726;7.416;2023-04-24T12:46:28;7.80;;;2.80;;
11396;SDS011;5754;43.726;7.416;2023-04-24T12:49:02;6.03;;;2.60;;
11396;SDS011;5754;43.726;7.416;2023-04-24T12:51:37;8.37;;;2.67;;
11396;SDS011;5754;43.726;7.416;2023-04-24T12:54:11;6.63;;;2.60;;
11396;SDS011;5754;43.726;7.416;2023-04-24T12:56:45;6.83;;;2.60;;
11396;SDS011;5754;43.726;7.416;2023-04-24T12:59:20;6.20;;;2.60;;
11396;SDS011;5754;43.726;7.416;2023-04-24T13:01:54;6.30;;;2.43;;
11396;SDS011;5754;43.726;7.416;2023-04-24T13:04:29;5.77;;;2.37;;
11396;SDS011;5754;43.726;7.416;2023-04-24T13:07:03;7.83;;;3.17;;
11396;SDS011;5754;43.726;7.416;2023-04-24T13:09:38;5.77;;;2.83;;
11396;SDS011;5754;43.726;7.416;2023-04-24T13:12:12;4.37;;;2.30;;
11396;SDS011;5754;43.726;7.416;2023-04-24T13:14:47;7.10;;;3.10;;
11396;SDS011;5754;43.726;7.416;2023-04-24T13:17:22;4.43;;;2.43;;
11396;SDS011;5754;43.726;7.416;2023-04-24T13:19:56;4.50;;;3.00;;
11396;SDS011;5754;43.726;7.416;2023-04-24T13:22:30;7.00;;;2.90;;
11396;SDS011;5754;43.726;7.416;2023-04-24T13:25:06;9.13;;;3.00;;
11396;SDS011;5754;43.726;7.416;2023-04-24T13:27:41;6.97;;;2.50;;
11396;SDS011;5754;43.726;7.416;2023-04-24T13:30:16;5.33;;;2.67;;
11396;SDS011;5754;43.726;7.416;2023-04-24T13:32:50;5.47;;;2.83;;
11396;SDS011;5754;43.726;7.416;2023-04-24T13:35:25;8.83;;;3.10;;
11396;SDS011;5754;43.726;7.416;2023-04-24T13:38:01;5.93;;;2.90;;
11396;SDS011;5754;43.726;7.416;2023-04-24T13:40:39;6.60;;;2.83;;
11396;SDS011;5754;43.726;7.416;2023-04-24T13:43:14;5.70;;;2.90;;
11396;SDS011;5754;43.726;7.416;2023-04-24T13:45:48;8.57;;;3.57;;
11396;SDS011;5754;43.726;7.416;2023-04-24T13:48:23;4.50;;;2.90;;
11396;SDS011;5754;43.726;7.416;2023-04-24T13:50:58;6.60;;;2.83;;
11396;SDS011;5754;43.726;7.416;2023-04-24T13:53:32;7.17;;;2.73;;
11396;SDS011;5754;43.726;7.416;2023-04-24T13:56:10;9.27;;;3.13;;
11396;SDS011;5754;43.726;7.416;2023-04-24T13:58:46;5.97;;;2.83;;
11396;SDS011;5754;43.726;7.416;2023-04-24T14:01:20;9.77;;;2.80;;
11396;SDS011;5754;43.726;7.416;2023-04-24T14:03:57;6.23;;;2.47;;
11396;SDS011;5754;43.726;7.416;2023-04-24T14:06:33;4.63;;;2.60;;
11396;SDS011;5754;43.726;7.416;2023-04-24T14:09:08;8.53;;;2.60;;
11396;SDS011;5754;43.726;7.416;2023-04-24T14:11:42;7.77;;;2.70;;
11396;SDS011;5754;43.726;7.416;2023-04-24T14:14:17;7.70;;;3.10;;
11396;SDS011;5754;43.726;7.416;2023-04-24T14:16:51;6.43;;;2.50;;
11396;SDS011;5754;43.726;7.416;2023-04-24T14:19:26;9.07;;;3.13;;
11396;SDS011;5754;43.726;7.416;2023-04-24T14:22:00;8.03;;;2.70;;
11396;SDS011;5754;43.726;7.416;2023-04-24T14:24:34;6.03;;;2.70;;
11396;SDS011;5754;43.726;7.416;2023-04-24T14:27:09;10.23;;;3.10;;
11396;SDS011;5754;43.726;7.416;2023-04-24T14:29:43;5.67;;;2.60;;
11396;SDS011;5754;43.726;7.416;2023-04-24T14:32:19;4.93;;;2.50;;
11396;SDS011;5754;43.726;7.416;2023-04-24T14:37:37;5.53;;;2.60;;
11396;SDS011;5754;43.726;7.416;2023-04-24T14:40:14;7.63;;;3.10;;
11396;SDS011;5754;43.726;7.416;2023-04-24T14:43:02;7.40;;;2.80;;
11396;SDS011;5754;43.726;7.416;2023-04-24T14:45:36;7.23;;;2.63;;
11396;SDS011;5754;43.726;7.416;2023-04-24T14:48:11;7.03;;;2.87;;
11396;SDS011;5754;43.726;7.416;2023-04-24T14:50:46;6.70;;;2.70;;
11396;SDS011;5754;43.726;7.416;2023-04-24T14:53:21;8.10;;;2.40;;
11396;SDS011;5754;43.726;7.416;2023-04-24T14:55:55;9.07;;;2.87;;
11396;SDS011;5754;43.726;7.416;2023-04-24T14:58:29;5.53;;;2.40;;
11396;SDS011;5754;43.726;7.416;2023-04-24T15:01:04;4.63;;;2.53;;
11396;SDS011;5754;43.726;7.416;2023-04-24T15:03:38;5.20;;;2.47;;
11396;SDS011;5754;43.726;7.416;2023-04-24T15:06:13;6.47;;;2.80;;
11396;SDS011;5754;43.726;7.416;2023-04-24T15:08:48;8.23;;;2.40;;
11396;SDS011;5754;43.726;7.416;2023-04-24T15:11:23;8.83;;;2.70;;
11396;SDS011;5754;43.726;7.416;2023-04-24T15:13:59;10.63;;;3.33;;
11396;SDS011;5754;43.726;7.416;2023-04-24T15:16:33;6.00;;;2.80;;
11396;SDS011;5754;43.726;7.416;2023-04-24T15:19:09;4.50;;;2.23;;
11396;SDS011;5754;43.726;7.416;2023-04-24T15:21:44;5.60;;;2.37;;
11396;SDS011;5754;43.726;7.416;2023-04-24T15:24:18;8.60;;;2.47;;
11396;SDS011;5754;43.726;7.416;2023-04-24T15:26:53;7.03;;;2.67;;
11396;SDS011;5754;43.726;7.416;2023-04-24T15:29:28;5.47;;;2.40;;
11396;SDS011;5754;43.726;7.416;2023-04-24T15:32:03;7.83;;;2.30;;
11396;SDS011;5754;43.726;7.416;2023-04-24T15:34:38;9.53;;;2.80;;
11396;SDS011;5754;43.726;7.416;2023-04-24T15:37:12;6.67;;;2.50;;
11396;SDS011;5754;43.726;7.416;2023-04-24T15:39:47;7.87;;;2.57;;
11396;SDS011;5754;43.726;7.416;2023-04-24T15:42:21;6.13;;;2.63;;
11396;SDS011;5754;43.726;7.416;2023-04-24T15:44:58;53.00;;;5.07;;
11396;SDS011;5754;43.726;7.416;2023-04-24T15:47:33;14.50;;;2.87;;
11396;SDS011;5754;43.726;7.416;2023-04-24T15:50:09;16.63;;;3.10;;
11396;SDS011;5754;43.726;7.416;2023-04-24T15:52:45;6.27;;;2.43;;
11396;SDS011;5754;43.726;7.416;2023-04-24T15:55:19;4.93;;;1.90;;
11396;SDS011;5754;43.726;7.416;2023-04-24T15:57:53;8.20;;;2.07;;
11396;SDS011;5754;43.726;7.416;2023-04-24T16:00:28;6.27;;;2.17;;
11396;SDS011;5754;43.726;7.416;2023-04-24T16:03:06;5.57;;;2.30;;
11396;SDS011;5754;43.726;7.416;2023-04-24T16:05:42;6.53;;;2.20;;